Time;durP1;ratioP1;P1;durP2;ratioP2;P2;SDS_P1;SDS_P2;PMS_P1;PMS_P2;Temp;Humidity;BMP_temperature;BMP_pressure;BME280_temperature;BME280_humidity;BME280_pressure;Samples;Min_cycle;Max_cycle;Signal;HPM_P1;HPM_P2
2024/03/29 00:00:42;;;;;;;2.23;1.47;;;9.50;99.90;;;;;;5116066;28;20403;-73
2024/03/29 00:03:09;;;;;;;2.37;1.40;;;9.50;99.70;;;;;;5115831;28;20923;-73
2024/03/29 00:05:35;;;;;;;4.60;1.50;;;9.50;99.90;;;;;;5115810;28;20402;-73
2024/03/29 00:08:00;;;;;;;1.53;1.20;;;9.50;99.60;;;;;;5115526;28;20424;-74
2024/03/29 00:10:26;;;;;;;1.53;1.10;;;9.60;99.50;;;;;;5115763;28;20408;-74
2024/03/29 00:12:52;;;;;;;2.43;1.07;;;9.60;99.50;;;;;;5115756;28;20248;-73
2024/03/29 00:15:17;;;;;;;1.83;1.40;;;9.70;99.80;;;;;;5115369;28;20169;-72
2024/03/29 00:17:43;;;;;;;1.70;1.20;;;9.70;99.50;;;;;;5115622;28;20203;-73
2024/03/29 00:20:08;;;;;;;1.70;1.57;;;9.70;99.70;;;;;;5115529;28;20185;-74
2024/03/29 00:22:34;;;;;;;1.73;1.30;;;9.70;99.70;;;;;;5115332;28;20161;-74
2024/03/29 00:25:00;;;;;;;2.90;1.60;;;9.60;99.60;;;;;;5116027;28;20438;-74
2024/03/29 00:27:28;;;;;;;2.00;1.07;;;9.70;99.40;;;;;;5115718;28;20165;-73
2024/03/29 00:29:53;;;;;;;2.07;1.10;;;9.80;99.80;;;;;;5115385;28;20475;-74
2024/03/29 00:32:20;;;;;;;4.20;1.87;;;9.70;99.70;;;;;;5115720;28;20414;-74
2024/03/29 00:34:45;;;;;;;2.10;1.40;;;9.70;99.60;;;;;;5115569;28;20216;-75
2024/03/29 00:37:11;;;;;;;1.63;1.37;;;9.70;99.60;;;;;;5115248;28;20438;-73
2024/03/29 00:39:37;;;;;;;2.47;1.30;;;9.70;99.70;;;;;;5115500;28;20195;-73
2024/03/29 00:42:04;;;;;;;1.20;1.00;;;9.70;99.70;;;;;;5115477;28;20478;-73
2024/03/29 00:44:30;;;;;;;1.90;1.27;;;9.70;99.70;;;;;;5115512;28;20177;-73
2024/03/29 00:46:55;;;;;;;3.13;1.00;;;9.80;99.70;;;;;;5115151;28;20409;-73
2024/03/29 00:49:21;;;;;;;1.50;1.10;;;9.80;99.80;;;;;;5115115;28;20180;-73
2024/03/29 00:51:46;;;;;;;1.97;1.43;;;9.90;99.80;;;;;;5115066;28;20207;-73
2024/03/29 00:54:12;;;;;;;1.20;1.10;;;10.00;99.10;;;;;;5114879;28;20218;-73
2024/03/29 00:56:37;;;;;;;1.20;1.10;;;10.00;98.90;;;;;;5114989;28;20173;-73
2024/03/29 00:59:03;;;;;;;1.80;1.17;;;10.10;98.80;;;;;;5114942;28;20184;-73
2024/03/29 01:01:28;;;;;;;1.73;1.17;;;10.10;98.70;;;;;;5115115;28;20199;-73
2024/03/29 01:03:54;;;;;;;2.07;1.27;;;10.20;98.80;;;;;;5115007;28;20176;-73
2024/03/29 01:06:20;;;;;;;1.60;1.10;;;10.30;98.90;;;;;;5114104;28;20222;-73
2024/03/29 01:08:45;;;;;;;2.10;1.30;;;10.30;98.50;;;;;;5114570;28;20250;-73
2024/03/29 01:11:11;;;;;;;1.60;1.20;;;10.50;98.90;;;;;;5114763;28;20454;-74
2024/03/29 01:13:36;;;;;;;1.40;1.20;;;10.60;99.00;;;;;;5114669;28;20254;-72
2024/03/29 01:16:02;;;;;;;1.40;1.17;;;10.70;99.10;;;;;;5114784;28;20164;-73
2024/03/29 01:18:27;;;;;;;1.07;0.97;;;10.70;99.60;;;;;;5114491;28;20183;-73
2024/03/29 01:20:53;;;;;;;1.40;1.10;;;10.70;99.60;;;;;;5114498;28;20277;-73
2024/03/29 01:23:18;;;;;;;3.33;1.10;;;10.60;99.20;;;;;;5114393;28;20244;-73
2024/03/29 01:25:44;;;;;;;1.40;1.00;;;10.60;99.30;;;;;;5114608;28;20156;-72
2024/03/29 01:28:09;;;;;;;1.00;0.90;;;10.60;99.30;;;;;;5114268;28;20172;-74
2024/03/29 01:30:36;;;;;;;2.33;1.20;;;10.40;99.50;;;;;;5114443;28;20246;-75
2024/03/29 01:33:01;;;;;;;2.20;1.03;;;10.50;99.40;;;;;;5114307;28;20432;-74
2024/03/29 01:35:27;;;;;;;1.30;0.90;;;10.40;99.40;;;;;;5114659;28;20861;-74
2024/03/29 01:37:52;;;;;;;2.47;0.97;;;10.40;99.30;;;;;;5114324;28;20681;-73
2024/03/29 01:40:18;;;;;;;3.77;1.63;;;10.40;99.20;;;;;;5113053;28;20199;-73
2024/03/29 01:42:43;;;;;;;1.50;0.90;;;10.40;98.90;;;;;;5114186;28;20178;-74
2024/03/29 01:45:09;;;;;;;1.23;0.90;;;10.30;99.10;;;;;;5112758;28;20640;-73
2024/03/29 01:47:35;;;;;;;2.13;0.97;;;10.30;99.40;;;;;;5114199;28;20187;-73
2024/03/29 01:50:01;;;;;;;1.63;1.07;;;10.20;99.10;;;;;;5113893;28;20416;-73
2024/03/29 01:52:28;;;;;;;1.80;1.37;;;10.20;99.10;;;;;;5112471;28;20181;-74
2024/03/29 01:54:54;;;;;;;1.67;0.90;;;10.20;99.00;;;;;;5114240;28;20635;-74
2024/03/29 01:57:20;;;;;;;1.03;0.80;;;10.20;98.70;;;;;;5113700;28;20412;-73
2024/03/29 01:59:47;;;;;;;1.10;0.90;;;10.20;98.50;;;;;;5113783;28;20213;-74
2024/03/29 02:02:13;;;;;;;3.33;0.83;;;10.20;98.50;;;;;;5112477;28;20414;-75
2024/03/29 02:04:39;;;;;;;1.80;1.10;;;10.20;98.30;;;;;;5113575;28;20401;-74
2024/03/29 02:07:05;;;;;;;2.03;1.00;;;10.20;98.10;;;;;;5113785;28;20424;-74
2024/03/29 02:09:31;;;;;;;1.93;1.03;;;10.30;98.10;;;;;;5113701;28;20443;-74
2024/03/29 02:11:56;;;;;;;1.27;0.90;;;10.40;98.00;;;;;;5113419;28;20241;-74
2024/03/29 02:14:22;;;;;;;1.30;0.93;;;10.30;97.60;;;;;;5113412;28;20192;-75
2024/03/29 02:16:47;;;;;;;1.67;0.90;;;10.30;97.60;;;;;;5113361;28;20554;-73
2024/03/29 02:19:13;;;;;;;1.00;0.80;;;10.30;97.60;;;;;;5113292;28;20256;-74
2024/03/29 02:21:45;;;;;;;1.20;0.83;;;10.30;97.70;;;;;;5113504;28;20237;-75
2024/03/29 02:24:12;;;;;;;1.33;0.90;;;10.30;97.60;;;;;;5113430;28;20240;-75
2024/03/29 02:26:41;;;;;;;1.17;0.70;;;10.40;97.70;;;;;;5112009;28;20424;-75
2024/03/29 02:29:07;;;;;;;1.30;0.80;;;10.40;97.60;;;;;;5113309;28;20505;-74
2024/03/29 02:31:34;;;;;;;1.00;0.80;;;10.40;97.40;;;;;;5113221;28;20484;-74
2024/03/29 02:34:00;;;;;;;1.47;0.77;;;10.30;97.20;;;;;;5113078;28;20454;-74
2024/03/29 02:36:25;;;;;;;1.30;1.10;;;10.40;97.30;;;;;;5113358;28;20768;-74
2024/03/29 02:38:51;;;;;;;2.70;1.33;;;10.40;97.00;;;;;;5111715;28;20690;-74
2024/03/29 02:41:17;;;;;;;1.23;0.80;;;10.40;97.00;;;;;;5113002;28;20160;-75
2024/03/29 02:43:42;;;;;;;2.43;0.83;;;10.40;97.00;;;;;;5113318;28;20167;-75
2024/03/29 02:46:08;;;;;;;1.60;1.10;;;10.50;97.10;;;;;;5113194;28;20643;-75
2024/03/29 02:48:33;;;;;;;1.57;0.80;;;10.50;97.20;;;;;;5113275;28;20612;-74
2024/03/29 02:50:59;;;;;;;1.00;0.80;;;10.70;96.90;;;;;;5113363;28;20575;-75
2024/03/29 02:53:24;;;;;;;1.50;0.80;;;10.80;97.10;;;;;;5112451;28;20193;-74
2024/03/29 02:55:50;;;;;;;1.50;1.00;;;10.70;96.70;;;;;;5118495;28;20175;-75
2024/03/29 02:58:16;;;;;;;1.40;0.87;;;10.60;97.00;;;;;;5116432;28;20185;-74
2024/03/29 03:00:41;;;;;;;2.20;0.73;;;10.60;96.90;;;;;;5117004;28;20523;-74
2024/03/29 03:03:07;;;;;;;1.00;0.73;;;10.60;97.20;;;;;;5117742;28;20162;-73
2024/03/29 03:05:32;;;;;;;1.47;0.90;;;10.60;97.70;;;;;;5119335;28;20168;-73
2024/03/29 03:11:00;;;;;;;1.97;0.73;;;10.60;96.80;;;;;;5116480;28;20193;-74
2024/03/29 03:13:27;;;;;;;1.40;0.70;;;10.60;96.90;;;;;;5114855;28;20525;-75
2024/03/29 03:15:53;;;;;;;1.67;0.80;;;10.60;97.00;;;;;;5112437;28;20792;-74
2024/03/29 03:18:19;;;;;;;1.10;0.70;;;10.60;96.90;;;;;;5113600;28;20414;-75
2024/03/29 03:20:54;;;;;;;2.53;0.83;;;10.50;97.10;;;;;;5113671;28;20198;-75
2024/03/29 03:23:20;;;;;;;1.73;0.80;;;10.60;97.20;;;;;;5113321;28;20665;-75
2024/03/29 03:25:53;;;;;;;1.57;0.63;;;10.50;96.40;;;;;;5113639;28;20397;-75
2024/03/29 03:28:19;;;;;;;1.30;0.97;;;10.70;96.60;;;;;;5113374;28;20733;-74
2024/03/29 03:30:44;;;;;;;0.70;0.60;;;10.80;96.20;;;;;;5116985;28;20410;-73
2024/03/29 03:33:10;;;;;;;0.97;0.60;;;10.90;95.80;;;;;;5117204;28;20191;-73
2024/03/29 03:35:35;;;;;;;3.00;0.80;;;10.80;95.10;;;;;;5117229;28;20187;-74
2024/03/29 03:38:01;;;;;;;2.03;1.00;;;10.90;95.40;;;;;;5117245;28;20172;-75
2024/03/29 03:40:27;;;;;;;1.50;0.90;;;10.90;95.50;;;;;;5117573;28;20185;-75
2024/03/29 03:42:52;;;;;;;1.70;0.77;;;11.00;95.30;;;;;;5117109;28;20186;-74
2024/03/29 03:45:18;;;;;;;1.20;0.80;;;11.10;95.30;;;;;;5117193;28;20173;-74
2024/03/29 03:47:43;;;;;;;0.80;0.70;;;11.10;95.00;;;;;;5115264;28;20243;-73
2024/03/29 03:50:09;;;;;;;3.50;0.80;;;11.20;95.40;;;;;;5116434;28;20186;-73
2024/03/29 03:52:34;;;;;;;1.00;0.80;;;11.30;95.10;;;;;;5115482;28;20198;-74
2024/03/29 03:55:00;;;;;;;1.47;0.77;;;11.40;95.00;;;;;;5116365;28;20161;-74
2024/03/29 03:57:26;;;;;;;2.23;1.07;;;11.40;95.30;;;;;;5116022;28;20167;-74
2024/03/29 03:59:51;;;;;;;0.80;0.60;;;11.10;94.90;;;;;;5116185;28;20195;-73
2024/03/29 04:02:17;;;;;;;2.00;1.03;;;10.90;95.60;;;;;;5116123;28;20161;-72
2024/03/29 04:04:42;;;;;;;1.10;0.80;;;11.00;95.90;;;;;;5116087;28;20168;-74
2024/03/29 04:07:08;;;;;;;1.93;0.90;;;11.10;96.40;;;;;;5116251;28;20576;-73
2024/03/29 04:09:33;;;;;;;0.77;0.50;;;11.10;96.00;;;;;;5115799;28;20199;-73
2024/03/29 04:11:59;;;;;;;1.87;1.17;;;11.20;96.20;;;;;;5115911;28;20719;-73
2024/03/29 04:14:25;;;;;;;1.20;0.80;;;11.30;96.20;;;;;;5115985;28;20212;-72
2024/03/29 04:16:50;;;;;;;2.33;0.80;;;11.00;95.90;;;;;;5115988;28;20200;-73
2024/03/29 04:19:16;;;;;;;1.20;0.70;;;10.80;96.30;;;;;;5115848;28;20194;-73
2024/03/29 04:21:41;;;;;;;1.60;0.87;;;11.10;96.30;;;;;;5115915;28;20192;-74
2024/03/29 04:24:09;;;;;;;1.20;0.80;;;11.30;96.40;;;;;;5115820;28;20634;-73
2024/03/29 04:26:36;;;;;;;1.10;0.90;;;11.20;96.50;;;;;;5115758;28;20171;-73
2024/03/29 04:29:02;;;;;;;1.80;0.90;;;11.30;96.50;;;;;;5115785;28;20501;-73
2024/03/29 04:31:27;;;;;;;1.40;0.90;;;11.20;96.10;;;;;;5115501;28;20434;-74
2024/03/29 04:33:53;;;;;;;1.67;0.90;;;11.30;96.30;;;;;;5115342;28;20301;-74
2024/03/29 04:36:18;;;;;;;1.77;1.07;;;11.40;96.60;;;;;;5114394;28;20167;-73
2024/03/29 04:38:44;;;;;;;1.67;1.00;;;11.20;96.30;;;;;;5115382;28;20194;-74
2024/03/29 04:41:09;;;;;;;1.30;0.90;;;11.30;96.90;;;;;;5115427;28;20173;-73
2024/03/29 04:43:35;;;;;;;2.60;1.00;;;11.40;97.10;;;;;;5115444;28;20161;-73
2024/03/29 04:46:06;;;;;;;0.80;0.60;;;11.10;96.90;;;;;;5115327;28;20532;-73
2024/03/29 04:48:32;;;;;;;1.00;0.73;;;10.90;97.50;;;;;;5115245;28;20191;-74
2024/03/29 04:50:58;;;;;;;1.47;1.00;;;11.10;97.40;;;;;;5114202;28;20417;-74
2024/03/29 04:53:23;;;;;;;1.77;0.73;;;11.20;98.30;;;;;;5115040;28;20230;-74
2024/03/29 04:55:58;;;;;;;1.00;0.70;;;11.10;97.10;;;;;;5115211;27;20169;-73
2024/03/29 04:58:25;;;;;;;1.20;0.80;;;11.00;97.50;;;;;;5115006;28;20177;-75
2024/03/29 05:00:51;;;;;;;1.30;0.90;;;10.80;96.60;;;;;;5114899;28;20459;-73
2024/03/29 05:03:18;;;;;;;1.30;0.90;;;10.70;97.50;;;;;;5115127;28;20398;-73
2024/03/29 05:05:44;;;;;;;1.70;1.00;;;10.90;98.30;;;;;;5114841;28;20908;-74
2024/03/29 05:08:09;;;;;;;1.00;0.70;;;11.10;98.50;;;;;;5114685;28;20425;-74
2024/03/29 05:10:35;;;;;;;0.90;0.67;;;11.10;97.60;;;;;;5113569;28;20426;-74
2024/03/29 05:13:01;;;;;;;1.60;1.00;;;11.20;97.30;;;;;;5114741;28;20201;-72
2024/03/29 05:15:27;;;;;;;1.37;0.80;;;11.00;96.90;;;;;;5114716;28;20161;-73
2024/03/29 05:17:53;;;;;;;2.30;1.03;;;11.20;96.90;;;;;;5114747;28;20174;-74
2024/03/29 05:20:19;;;;;;;2.70;0.90;;;11.30;96.50;;;;;;5113356;28;20412;-74
2024/03/29 05:22:44;;;;;;;1.20;1.00;;;11.40;96.90;;;;;;5114526;28;20777;-74
2024/03/29 05:25:10;;;;;;;3.30;1.10;;;11.60;97.40;;;;;;5114890;27;20962;-74
2024/03/29 05:27:35;;;;;;;1.80;1.20;;;11.70;97.80;;;;;;5114695;28;20165;-73
2024/03/29 05:30:03;;;;;;;1.77;1.10;;;11.70;98.90;;;;;;5114395;28;20188;-74
2024/03/29 05:32:29;;;;;;;1.30;0.93;;;11.70;98.40;;;;;;5114799;28;20177;-74
2024/03/29 05:34:55;;;;;;;1.27;0.83;;;11.60;98.90;;;;;;5114430;28;20401;-73
2024/03/29 05:37:21;;;;;;;1.10;0.80;;;11.60;99.20;;;;;;5114252;27;20408;-74
2024/03/29 05:39:47;;;;;;;1.63;0.80;;;11.60;99.20;;;;;;5114118;28;20318;-74
2024/03/29 05:42:13;;;;;;;1.13;1.00;;;11.70;99.30;;;;;;5114132;28;20446;-73
2024/03/29 05:44:38;;;;;;;2.03;1.00;;;11.60;99.30;;;;;;5112716;28;20183;-74
2024/03/29 05:47:07;;;;;;;0.93;0.77;;;11.50;99.90;;;;;;5114026;28;20168;-73
2024/03/29 05:49:33;;;;;;;1.20;0.70;;;11.50;99.90;;;;;;5113850;28;20723;-74
2024/03/29 05:51:58;;;;;;;1.50;0.70;;;11.60;99.90;;;;;;5112261;28;20472;-74
2024/03/29 05:54:24;;;;;;;1.13;0.80;;;11.70;99.90;;;;;;5112596;28;20471;-74
2024/03/29 05:56:50;;;;;;;1.30;0.80;;;11.70;99.90;;;;;;5113894;27;20173;-73
2024/03/29 05:59:15;;;;;;;2.63;1.17;;;11.70;99.90;;;;;;5113782;28;20181;-74
2024/03/29 06:01:41;;;;;;;1.60;1.00;;;11.60;99.80;;;;;;5113904;28;20195;-73
2024/03/29 06:04:15;;;;;;;1.00;0.80;;;11.70;99.60;;;;;;5114028;28;20172;-73
2024/03/29 06:06:41;;;;;;;1.73;0.97;;;11.70;98.10;;;;;;5113697;28;20871;-74
2024/03/29 06:09:07;;;;;;;0.90;0.80;;;11.60;98.80;;;;;;5113413;28;20536;-72
2024/03/29 06:11:32;;;;;;;1.50;0.70;;;11.70;98.30;;;;;;5113474;28;20628;-74
2024/03/29 06:19:11;;;;;;;0.70;0.60;;;11.50;94.30;;;;;;5113226;28;20213;-73
2024/03/29 06:21:39;;;;;;;1.10;0.60;;;11.60;94.40;;;;;;5112107;28;20452;-74
2024/03/29 06:24:12;;;;;;;0.93;0.67;;;11.90;93.80;;;;;;5112044;28;20417;-74
2024/03/29 06:26:38;;;;;;;0.83;0.70;;;12.10;94.10;;;;;;5112091;28;20407;-74
2024/03/29 06:29:04;;;;;;;1.27;0.60;;;11.90;93.00;;;;;;5113645;28;20468;-74
2024/03/29 06:31:29;;;;;;;1.20;0.80;;;12.00;92.90;;;;;;5113255;28;20506;-73
2024/03/29 06:33:57;;;;;;;1.63;0.80;;;12.10;94.30;;;;;;5113337;28;20232;-74
2024/03/29 06:36:23;;;;;;;3.00;1.07;;;12.20;94.80;;;;;;5113282;28;20181;-74
2024/03/29 06:38:48;;;;;;;1.80;1.10;;;12.40;95.00;;;;;;5113323;28;20412;-74
2024/03/29 06:41:15;;;;;;;3.37;1.50;;;12.40;94.70;;;;;;5114466;28;20191;-73
2024/03/29 06:43:45;;;;;;;0.97;0.87;;;12.20;93.90;;;;;;5114888;28;20175;-73
2024/03/29 06:46:11;;;;;;;0.90;0.60;;;12.40;93.30;;;;;;5114100;28;20407;-73
2024/03/29 06:48:37;;;;;;;2.20;0.77;;;12.50;92.70;;;;;;5114043;28;20433;-73
2024/03/29 06:51:03;;;;;;;1.50;0.80;;;12.30;91.50;;;;;;5113820;28;20404;-74
2024/03/29 06:53:29;;;;;;;2.07;0.80;;;12.40;92.20;;;;;;5113710;28;20576;-74
2024/03/29 06:55:58;;;;;;;1.00;0.63;;;12.40;91.40;;;;;;5113699;28;20399;-73
2024/03/29 06:58:24;;;;;;;1.00;0.80;;;12.30;91.60;;;;;;5113015;28;20209;-73
2024/03/29 07:00:50;;;;;;;1.90;0.70;;;12.70;91.60;;;;;;5112978;28;20893;-73
2024/03/29 07:03:18;;;;;;;2.23;0.67;;;12.70;90.90;;;;;;5113209;28;20257;-74
2024/03/29 07:05:44;;;;;;;1.13;0.87;;;12.80;91.10;;;;;;5116745;28;20459;-73
2024/03/29 07:08:10;;;;;;;2.10;1.00;;;13.00;91.60;;;;;;5116865;28;20925;-74
2024/03/29 07:10:35;;;;;;;1.67;1.00;;;13.20;91.70;;;;;;5117281;28;20413;-74
2024/03/29 07:13:01;;;;;;;1.57;1.47;;;13.20;92.30;;;;;;5116960;28;20195;-75
2024/03/29 07:15:26;;;;;;;1.57;0.70;;;13.40;92.30;;;;;;5117089;28;20168;-74
2024/03/29 07:17:52;;;;;;;1.40;0.90;;;13.20;92.00;;;;;;5117106;28;20216;-74
2024/03/29 07:20:18;;;;;;;1.20;0.80;;;13.20;91.60;;;;;;5116797;28;20194;-74
2024/03/29 07:22:45;;;;;;;4.13;1.97;;;13.00;92.10;;;;;;5116902;28;20177;-75
2024/03/29 07:25:10;;;;;;;1.00;0.80;;;13.00;92.50;;;;;;5117115;28;20549;-74
2024/03/29 07:27:36;;;;;;;1.20;0.83;;;13.10;92.70;;;;;;5116626;28;20504;-74
2024/03/29 07:30:07;;;;;;;1.90;1.60;;;12.80;92.80;;;;;;5116798;28;20220;-74
2024/03/29 07:32:33;;;;;;;1.57;1.43;;;12.90;93.90;;;;;;5116801;28;20258;-74
2024/03/29 07:34:59;;;;;;;3.77;1.53;;;13.00;94.00;;;;;;5116500;28;20531;-74
2024/03/29 07:37:25;;;;;;;2.20;1.30;;;12.90;94.20;;;;;;5116923;28;20184;-73
2024/03/29 07:39:51;;;;;;;2.53;1.30;;;12.90;97.00;;;;;;5116275;28;20430;-73
2024/03/29 07:42:17;;;;;;;2.00;1.17;;;12.90;99.90;;;;;;5116134;28;20409;-73
2024/03/29 07:44:42;;;;;;;2.20;1.20;;;12.60;99.90;;;;;;5116525;28;20221;-74
2024/03/29 07:47:08;;;;;;;1.97;1.23;;;12.40;99.90;;;;;;5116328;28;20635;-73
2024/03/29 07:49:33;;;;;;;2.10;1.47;;;12.00;99.90;;;;;;5115930;28;20691;-74
2024/03/29 07:52:02;;;;;;;1.80;1.40;;;11.70;99.90;;;;;;5116374;28;20172;-74
2024/03/29 07:54:27;;;;;;;1.97;1.10;;;11.40;99.90;;;;;;5116198;28;20342;-73
2024/03/29 07:56:53;;;;;;;3.30;1.30;;;11.40;99.90;;;;;;5116025;28;20441;-74
2024/03/29 07:59:19;;;;;;;1.20;1.10;;;11.10;99.90;;;;;;5116020;28;20287;-73
2024/03/29 08:01:45;;;;;;;3.10;1.10;;;10.90;99.90;;;;;;5116331;28;20186;-74
2024/03/29 08:04:11;;;;;;;2.43;1.00;;;10.70;99.90;;;;;;5115949;28;20407;-74
2024/03/29 08:06:36;;;;;;;1.83;1.27;;;10.70;99.90;;;;;;5116138;28;20222;-74
2024/03/29 08:09:02;;;;;;;1.80;1.23;;;10.70;99.90;;;;;;5115850;28;20219;-74
2024/03/29 08:11:27;;;;;;;2.00;1.30;;;10.70;99.90;;;;;;5116233;28;20550;-74
2024/03/29 08:13:53;;;;;;;1.50;1.17;;;10.70;99.90;;;;;;5115997;28;20603;-74
2024/03/29 08:16:19;;;;;;;1.60;1.10;;;10.70;99.90;;;;;;5114151;28;20218;-74
2024/03/29 08:18:47;;;;;;;2.93;1.10;;;10.80;99.90;;;;;;5115820;28;20621;-75
2024/03/29 08:21:13;;;;;;;3.17;1.00;;;10.80;99.90;;;;;;5115896;28;20192;-75
2024/03/29 08:23:40;;;;;;;1.30;0.97;;;10.80;99.90;;;;;;5115843;28;20952;-74
2024/03/29 08:26:05;;;;;;;3.03;1.20;;;10.90;99.90;;;;;;5115949;28;20171;-75
2024/03/29 08:28:31;;;;;;;1.80;1.40;;;10.90;99.90;;;;;;5115635;28;20425;-73
2024/03/29 08:31:02;;;;;;;2.10;1.30;;;10.90;99.90;;;;;;5115525;28;20549;-74
2024/03/29 08:33:28;;;;;;;1.40;1.00;;;10.70;99.90;;;;;;5115551;28;20229;-74
2024/03/29 08:35:53;;;;;;;1.60;1.23;;;10.80;99.90;;;;;;5114151;28;20914;-75
2024/03/29 08:38:19;;;;;;;2.90;1.23;;;10.90;99.90;;;;;;5114946;28;20188;-75
2024/03/29 08:40:47;;;;;;;2.70;1.23;;;11.00;99.90;;;;;;5115643;28;20231;-74
2024/03/29 08:43:16;;;;;;;1.50;1.13;;;11.20;99.90;;;;;;5116234;28;20211;-76
2024/03/29 08:45:41;;;;;;;2.30;1.40;;;11.40;99.90;;;;;;5115617;28;20710;-74
2024/03/29 08:48:08;;;;;;;1.80;1.40;;;11.60;99.90;;;;;;5115127;28;20439;-74
2024/03/29 08:50:35;;;;;;;2.50;1.70;;;11.80;99.90;;;;;;5115116;28;20223;-74
2024/03/29 08:53:01;;;;;;;1.70;1.30;;;12.10;99.90;;;;;;5114727;28;20954;-74
2024/03/29 08:55:27;;;;;;;2.00;1.43;;;12.20;99.90;;;;;;5115298;28;20959;-74
2024/03/29 08:57:53;;;;;;;1.63;1.37;;;12.30;99.90;;;;;;5114908;28;20493;-74
2024/03/29 09:00:19;;;;;;;2.20;2.00;;;12.30;99.90;;;;;;5114816;28;20624;-74
2024/03/29 09:02:46;;;;;;;3.37;2.17;;;12.30;99.90;;;;;;5114811;28;20412;-74
2024/03/29 09:05:12;;;;;;;2.00;1.80;;;12.40;99.90;;;;;;5114786;28;20172;-74
2024/03/29 09:07:38;;;;;;;2.10;1.90;;;12.30;99.90;;;;;;5113283;28;20422;-74
2024/03/29 09:10:04;;;;;;;2.10;1.90;;;12.40;99.90;;;;;;5114550;28;20271;-74
2024/03/29 09:12:30;;;;;;;1.13;1.03;;;12.40;99.90;;;;;;5114356;28;20432;-74
2024/03/29 09:14:55;;;;;;;2.80;1.50;;;12.40;99.90;;;;;;5114427;28;20437;-74
2024/03/29 09:17:21;;;;;;;2.40;2.07;;;12.20;99.90;;;;;;5114736;28;20171;-73
2024/03/29 09:19:50;;;;;;;2.53;2.00;;;11.80;99.90;;;;;;5114451;28;20682;-74
2024/03/29 09:22:16;;;;;;;3.07;2.77;;;11.60;99.90;;;;;;5114396;28;20495;-74
2024/03/29 09:24:41;;;;;;;3.50;2.57;;;11.80;99.90;;;;;;5114721;28;20548;-74
2024/03/29 09:27:07;;;;;;;2.77;2.47;;;12.10;99.90;;;;;;5113614;28;20182;-75
2024/03/29 09:29:32;;;;;;;2.67;2.47;;;12.40;99.90;;;;;;5114273;28;20192;-73
2024/03/29 09:31:58;;;;;;;3.47;2.40;;;12.50;99.90;;;;;;5114453;28;20173;-72
2024/03/29 09:34:24;;;;;;;2.73;2.13;;;12.60;99.90;;;;;;5114336;28;20247;-73
2024/03/29 09:36:50;;;;;;;4.23;2.50;;;12.70;99.90;;;;;;5114125;28;20408;-72
2024/03/29 09:39:15;;;;;;;4.57;3.17;;;12.80;99.90;;;;;;5114254;28;20188;-74
2024/03/29 09:41:46;;;;;;;3.97;3.00;;;12.70;99.90;;;;;;5114413;28;20365;-73
2024/03/29 09:44:12;;;;;;;7.63;4.93;;;12.50;99.90;;;;;;5113885;28;20170;-73
2024/03/29 09:46:39;;;;;;;3.60;2.50;;;12.60;99.90;;;;;;5113715;28;20417;-73
2024/03/29 09:49:06;;;;;;;2.70;2.50;;;12.70;99.90;;;;;;5114120;28;20857;-73
2024/03/29 09:51:32;;;;;;;4.13;2.13;;;12.70;99.90;;;;;;5114205;28;20438;-74
2024/03/29 09:53:59;;;;;;;3.93;2.87;;;13.00;99.90;;;;;;5113959;28;20480;-73
2024/03/29 09:56:28;;;;;;;3.33;3.03;;;13.40;99.90;;;;;;5113774;28;20168;-73
2024/03/29 09:58:54;;;;;;;2.40;2.13;;;13.70;99.90;;;;;;5113774;28;20420;-74
2024/03/29 10:01:20;;;;;;;2.33;1.73;;;13.70;99.90;;;;;;5113977;27;20414;-73
2024/03/29 10:03:50;;;;;;;2.30;2.10;;;13.80;99.90;;;;;;5113922;28;20179;-74
2024/03/29 10:06:19;;;;;;;5.33;2.60;;;13.80;99.90;;;;;;5113664;28;20439;-73
2024/03/29 10:08:45;;;;;;;2.87;2.00;;;13.70;99.90;;;;;;5113664;28;20462;-72
2024/03/29 10:11:11;;;;;;;4.33;2.40;;;13.80;99.90;;;;;;5113593;28;20918;-74
2024/03/29 10:13:38;;;;;;;2.80;1.97;;;13.90;99.90;;;;;;5114043;28;20238;-73
2024/03/29 10:16:05;;;;;;;2.43;2.10;;;14.00;99.90;;;;;;5113949;28;20807;-74
2024/03/29 10:18:30;;;;;;;1.73;1.63;;;14.20;99.90;;;;;;5113891;28;20202;-73
2024/03/29 10:21:04;;;;;;;2.17;1.77;;;14.40;99.90;;;;;;5113881;28;20859;-73
2024/03/29 10:23:31;;;;;;;2.00;1.80;;;14.80;99.90;;;;;;5114816;28;20164;-73
2024/03/29 10:25:56;;;;;;;5.07;2.53;;;14.90;99.90;;;;;;5114697;28;20417;-74
2024/03/29 10:28:22;;;;;;;3.23;2.10;;;14.60;99.90;;;;;;5113988;28;20426;-73
2024/03/29 10:30:49;;;;;;;3.00;1.80;;;14.70;99.90;;;;;;5114119;28;20167;-73
2024/03/29 10:33:16;;;;;;;3.47;2.50;;;14.90;99.90;;;;;;5113885;28;20544;-73
2024/03/29 10:35:45;;;;;;;3.47;2.50;;;13.90;99.90;;;;;;5113934;28;20408;-73
2024/03/29 10:38:12;;;;;;;2.47;2.17;;;13.70;99.90;;;;;;5113202;28;20867;-73
2024/03/29 10:40:41;;;;;;;2.53;2.30;;;14.30;99.90;;;;;;5113022;28;20489;-73
2024/03/29 10:43:13;;;;;;;2.87;2.00;;;14.40;99.90;;;;;;5113496;28;20409;-74
2024/03/29 10:45:40;;;;;;;3.03;2.57;;;14.90;99.90;;;;;;5113103;28;20479;-73
2024/03/29 10:48:09;;;;;;;2.97;2.10;;;15.20;99.90;;;;;;5113056;28;20407;-73
2024/03/29 10:50:36;;;;;;;2.80;1.87;;;15.20;99.90;;;;;;5111934;28;20418;-73
2024/03/29 10:53:03;;;;;;;2.10;1.90;;;15.10;99.90;;;;;;5112871;28;20479;-73
2024/03/29 10:55:33;;;;;;;2.73;2.30;;;15.40;99.90;;;;;;5113077;28;20806;-73
2024/03/29 10:58:00;;;;;;;2.33;1.97;;;15.50;99.90;;;;;;5113065;28;20406;-73
2024/03/29 11:00:29;;;;;;;6.70;2.23;;;15.60;99.90;;;;;;5112787;28;20452;-74
2024/03/29 11:03:03;;;;;;;6.37;2.40;;;15.80;99.90;;;;;;5113321;28;20854;-73
2024/03/29 11:05:30;;;;;;;3.03;2.13;;;15.80;99.90;;;;;;5113255;28;20482;-72
2024/03/29 11:07:57;;;;;;;2.37;1.80;;;15.60;99.90;;;;;;5111080;28;20419;-74
2024/03/29 11:10:32;;;;;;;3.07;2.40;;;15.70;99.90;;;;;;5113000;28;20387;-74
2024/03/29 11:13:00;;;;;;;2.10;1.73;;;16.00;99.90;;;;;;5112950;28;20463;-74
2024/03/29 11:15:29;;;;;;;3.50;1.80;;;16.30;99.90;;;;;;5113076;28;20447;-73
2024/03/29 11:17:56;;;;;;;2.80;1.60;;;16.70;99.90;;;;;;5113060;28;20435;-74
2024/03/29 11:20:34;;;;;;;3.67;2.63;;;16.80;99.90;;;;;;5112438;28;20893;-73
2024/03/29 11:23:06;;;;;;;2.20;1.87;;;17.10;99.90;;;;;;5112763;28;20464;-74
2024/03/29 11:25:43;;;;;;;2.23;2.03;;;16.40;99.90;;;;;;5112733;28;20418;-74
2024/03/29 11:28:13;;;;;;;4.57;2.30;;;16.10;99.90;;;;;;5112381;28;20777;-74
2024/03/29 11:30:49;;;;;;;3.50;2.20;;;16.50;99.90;;;;;;5112754;28;20406;-73
2024/03/29 11:33:34;;;;;;;2.60;2.30;;;16.20;99.90;;;;;;5112619;28;20994;-74
2024/03/29 11:36:12;;;;;;;2.90;2.30;;;15.20;99.90;;;;;;5112612;28;20806;-74
2024/03/29 11:38:39;;;;;;;3.83;2.30;;;15.40;99.90;;;;;;5112533;28;20940;-74
2024/03/29 11:41:07;;;;;;;3.73;2.20;;;15.40;99.90;;;;;;5112604;28;20407;-74
2024/03/29 11:43:33;;;;;;;2.20;2.00;;;15.50;99.90;;;;;;5112413;28;20448;-74
2024/03/29 11:46:03;;;;;;;3.00;2.00;;;15.60;99.90;;;;;;5111248;28;20539;-74
2024/03/29 11:48:31;;;;;;;2.40;2.20;;;16.10;99.90;;;;;;5112326;28;20430;-73
2024/03/29 11:50:58;;;;;;;3.83;2.00;;;16.20;99.90;;;;;;5114558;28;20403;-73
2024/03/29 11:53:23;;;;;;;4.70;1.87;;;16.60;99.90;;;;;;5116234;28;20844;-74
2024/03/29 11:55:53;;;;;;;2.27;1.90;;;16.80;99.90;;;;;;5116175;28;20401;-73
2024/03/29 11:58:29;;;;;;;3.17;2.63;;;16.60;99.90;;;;;;5116374;28;20212;-74
2024/03/29 12:00:56;;;;;;;2.80;1.90;;;16.70;99.90;;;;;;5116070;28;20853;-74
2024/03/29 12:03:24;;;;;;;4.63;1.93;;;16.70;99.90;;;;;;5115831;28;20406;-74
2024/03/29 12:05:51;;;;;;;2.70;1.80;;;16.30;99.90;;;;;;5116038;28;20793;-73
2024/03/29 12:08:17;;;;;;;3.40;2.23;;;16.20;99.90;;;;;;5115808;28;20446;-74
2024/03/29 12:10:44;;;;;;;2.63;2.23;;;16.10;99.90;;;;;;5115630;27;20762;-74
2024/03/29 12:13:10;;;;;;;2.30;2.10;;;16.30;99.90;;;;;;5115934;28;20184;-75
2024/03/29 12:15:35;;;;;;;3.40;2.47;;;16.40;99.90;;;;;;5115833;28;20413;-74
2024/03/29 12:18:04;;;;;;;2.70;2.50;;;16.20;99.90;;;;;;5115626;28;20600;-74
2024/03/29 12:20:30;;;;;;;3.03;2.43;;;16.30;99.90;;;;;;5115658;28;20170;-74
2024/03/29 12:22:58;;;;;;;5.40;2.47;;;16.00;99.90;;;;;;5114246;28;20418;-73
2024/03/29 12:25:24;;;;;;;3.57;2.50;;;15.70;99.90;;;;;;5115669;28;20414;-74
2024/03/29 12:27:49;;;;;;;2.90;1.90;;;16.00;99.90;;;;;;5115718;28;20747;-74
2024/03/29 12:30:15;;;;;;;3.60;2.47;;;16.50;99.90;;;;;;5115516;28;20221;-74
2024/03/29 12:32:41;;;;;;;3.23;2.20;;;16.40;99.90;;;;;;5115375;28;20254;-75
2024/03/29 12:35:14;;;;;;;2.80;2.30;;;16.50;99.90;;;;;;5115823;28;20925;-74
2024/03/29 12:37:51;;;;;;;4.37;2.27;;;16.80;99.90;;;;;;5115618;28;20569;-74
2024/03/29 12:40:23;;;;;;;2.87;2.67;;;16.60;99.90;;;;;;5115353;28;20432;-72
2024/03/29 12:42:50;;;;;;;3.77;2.23;;;17.10;99.90;;;;;;5115488;28;20748;-73
2024/03/29 12:45:19;;;;;;;3.43;2.30;;;17.30;99.90;;;;;;5115056;28;20411;-73
2024/03/29 12:47:46;;;;;;;3.30;2.20;;;17.30;99.90;;;;;;5115243;28;20414;-73
2024/03/29 12:50:29;;;;;;;4.17;2.43;;;17.50;99.90;;;;;;5115162;28;20428;-74
2024/03/29 12:52:59;;;;;;;2.30;2.10;;;18.20;99.90;;;;;;5114744;28;20415;-73